createdAt,value
2018-04-28T00:01:26.251Z,930.09
2018-04-28T00:02:58.065Z,930.12
2018-04-28T00:04:29.882Z,930.12
2018-04-28T00:06:01.695Z,930.09
2018-04-28T00:07:33.511Z,930.12
2018-04-28T00:09:05.427Z,930.11
2018-04-28T00:10:37.144Z,930.12
2018-04-28T00:12:08.957Z,930.11
2018-04-28T00:13:40.774Z,930.16
2018-04-28T00:15:12.588Z,930.17
2018-04-28T00:16:44.403Z,930.11
2018-04-28T00:18:16.219Z,930.09
2018-04-28T00:19:48.034Z,930.12
2018-04-28T00:21:19.849Z,930.12
2018-04-28T00:22:51.664Z,930.13
2018-04-28T00:24:23.485Z,930.11
2018-04-28T00:25:55.296Z,930.08
2018-04-28T00:27:27.210Z,930.08
2018-04-28T00:28:58.925Z,930.11
2018-04-28T00:30:30.740Z,930.10
2018-04-28T00:32:02.561Z,930.08
2018-04-28T00:33:34.369Z,930.05
2018-04-28T00:35:06.188Z,930.08
2018-04-28T00:36:38.001Z,930.07
2018-04-28T00:38:09.816Z,930.02
2018-04-28T00:39:41.632Z,930.04
2018-04-28T00:41:13.445Z,930.00
2018-04-28T00:42:45.261Z,930.04
2018-04-28T00:44:17.075Z,930.04
2018-04-28T00:45:48.990Z,930.06
2018-04-28T00:47:20.707Z,930.02
2018-04-28T00:48:52.520Z,929.98
2018-04-28T00:50:24.336Z,929.98
2018-04-28T00:51:56.150Z,929.98
2018-04-28T00:53:27.965Z,929.97
2018-04-28T00:54:59.780Z,930.00
2018-04-28T00:56:31.594Z,929.99
2018-04-28T00:58:03.408Z,930.05
2018-04-28T00:59:35.225Z,930.02
2018-04-28T01:01:07.039Z,930.02
2018-04-28T01:02:38.855Z,930.09
2018-04-28T01:04:10.769Z,930.14
2018-04-28T01:05:42.484Z,930.13
2018-04-28T01:07:14.298Z,930.13
2018-04-28T01:08:46.111Z,930.16
2018-04-28T01:10:17.928Z,930.18
2018-04-28T01:11:49.748Z,930.17
2018-04-28T01:13:21.558Z,930.16
2018-04-28T01:14:53.371Z,930.14
2018-04-28T01:16:25.186Z,930.19
2018-04-28T01:17:57.000Z,930.15
2018-04-28T01:19:28.815Z,930.18
2018-04-28T01:21:00.630Z,930.13
2018-04-28T01:22:32.745Z,930.12
2018-04-28T01:24:04.260Z,930.12
2018-04-28T01:25:36.076Z,930.15
2018-04-28T01:27:07.889Z,930.22
2018-04-28T01:28:39.704Z,930.17
2018-04-28T01:30:11.523Z,930.19
2018-04-28T01:31:43.337Z,930.17
2018-04-28T01:33:15.149Z,930.20
2018-04-28T01:34:46.963Z,930.26
2018-04-28T01:36:18.784Z,930.28
2018-04-28T01:37:50.592Z,930.29
2018-04-28T01:39:22.407Z,930.23
2018-04-28T01:40:54.321Z,930.18
2018-04-28T01:42:26.035Z,930.19
2018-04-28T01:43:57.852Z,930.20
2018-04-28T01:45:29.664Z,930.23
2018-04-28T01:47:01.488Z,930.21
2018-04-28T01:48:33.293Z,930.24
2018-04-28T01:50:05.107Z,930.22
2018-04-28T01:51:36.921Z,930.21
2018-04-28T01:53:08.891Z,930.21
2018-04-28T01:54:40.551Z,930.14
2018-04-28T01:56:12.366Z,930.11
2018-04-28T01:57:44.180Z,930.12
2018-04-28T01:59:16.094Z,930.12
2018-04-28T02:00:47.809Z,930.07
2018-04-28T02:02:19.624Z,930.10
2018-04-28T02:03:51.446Z,930.09
2018-04-28T02:05:23.252Z,930.08
2018-04-28T02:06:55.066Z,930.05
2018-04-28T02:08:26.881Z,930.02
2018-04-28T02:09:58.696Z,929.94
2018-04-28T02:11:30.509Z,929.95
2018-04-28T02:13:02.325Z,929.96
2018-04-28T02:14:34.138Z,929.94
2018-04-28T02:16:05.952Z,929.90
2018-04-28T02:17:37.868Z,929.93
2018-04-28T02:19:09.583Z,929.92
2018-04-28T02:20:41.395Z,929.93
2018-04-28T02:22:13.209Z,929.91
2018-04-28T02:23:45.030Z,929.91
2018-04-28T02:25:16.839Z,929.92
2018-04-28T02:26:48.654Z,929.92
2018-04-28T02:28:20.468Z,929.91
2018-04-28T02:29:52.282Z,929.95
2018-04-28T02:31:24.095Z,929.93
2018-04-28T02:32:55.911Z,929.93
2018-04-28T02:34:27.725Z,929.86
2018-04-28T02:35:59.798Z,929.90
2018-04-28T02:37:31.359Z,929.92
2018-04-28T02:39:03.170Z,929.95
2018-04-28T02:40:34.983Z,929.96
2018-04-28T02:42:06.797Z,929.91
2018-04-28T02:43:38.611Z,929.91
2018-04-28T02:45:10.424Z,929.93
2018-04-28T02:46:42.237Z,929.89
2018-04-28T02:48:14.052Z,929.89
2018-04-28T02:49:45.866Z,929.87
2018-04-28T02:51:17.681Z,929.85
2018-04-28T02:52:49.495Z,929.90
2018-04-28T02:54:21.611Z,929.86
2018-04-28T02:55:53.124Z,929.87
2018-04-28T02:57:24.938Z,929.92
2018-04-28T02:58:56.753Z,929.90
2018-04-28T03:00:28.570Z,929.94
2018-04-28T03:02:00.382Z,929.93
2018-04-28T03:03:32.196Z,929.91
2018-04-28T03:05:04.010Z,929.91
2018-04-28T03:06:35.826Z,929.93
2018-04-28T03:08:07.640Z,929.91
2018-04-28T03:09:39.455Z,929.95
2018-04-28T03:11:11.267Z,929.88
2018-04-28T03:12:43.182Z,929.87
2018-04-28T03:14:14.896Z,929.85
2018-04-28T03:15:46.712Z,929.86
2018-04-28T03:17:18.525Z,929.82
2018-04-28T03:18:50.590Z,929.80
2018-04-28T03:20:22.153Z,929.78
2018-04-28T03:21:53.968Z,929.73
2018-04-28T03:23:25.782Z,929.68
2018-04-28T03:24:57.597Z,929.66
2018-04-28T03:26:29.411Z,929.64
2018-04-28T03:28:01.225Z,929.63
2018-04-28T03:29:33.037Z,929.60
2018-04-28T03:31:04.954Z,929.63
2018-04-28T03:32:36.668Z,929.62
2018-04-28T03:34:08.480Z,929.59
2018-04-28T03:35:40.295Z,929.61
2018-04-28T03:37:12.113Z,929.62
2018-04-28T03:38:43.925Z,929.60
2018-04-28T03:40:15.736Z,929.64
2018-04-28T03:41:47.559Z,929.64
2018-04-28T03:43:19.364Z,929.63
2018-04-28T03:44:51.178Z,929.59
2018-04-28T03:46:22.992Z,929.57
2018-04-28T03:47:54.806Z,929.54
2018-04-28T03:49:26.970Z,929.51
2018-04-28T03:50:58.432Z,929.50
2018-04-28T03:52:30.251Z,929.49
2018-04-28T03:54:02.064Z,929.51
2018-04-28T03:55:34.026Z,929.47
2018-04-28T03:57:05.687Z,929.49
2018-04-28T03:58:37.501Z,929.44
2018-04-28T04:00:09.314Z,929.44
2018-04-28T04:01:41.129Z,929.43
2018-04-28T04:03:12.942Z,929.41
2018-04-28T04:04:44.755Z,929.34
2018-04-28T04:06:16.570Z,929.35
2018-04-28T04:07:48.482Z,929.35
2018-04-28T04:09:20.201Z,929.36
2018-04-28T04:10:52.012Z,929.34
2018-04-28T04:12:23.827Z,929.33
2018-04-28T04:13:55.637Z,929.36
2018-04-28T04:15:27.451Z,929.35
2018-04-28T04:16:59.266Z,929.35
2018-04-28T04:18:31.079Z,929.34
2018-04-28T04:20:03.143Z,929.31
2018-04-28T04:21:34.705Z,929.33
2018-04-28T04:23:06.519Z,929.34
2018-04-28T04:24:38.342Z,929.33
2018-04-28T04:26:10.448Z,929.30
2018-04-28T04:27:41.962Z,929.31
2018-04-28T04:29:13.775Z,929.31
2018-04-28T04:30:45.588Z,929.36
2018-04-28T04:32:17.404Z,929.30
2018-04-28T04:33:49.215Z,929.31
2018-04-28T04:35:21.029Z,929.27
2018-04-28T04:36:52.843Z,929.26
2018-04-28T04:38:24.660Z,929.28
2018-04-28T04:39:56.472Z,929.21
2018-04-28T04:41:28.285Z,929.25
2018-04-28T04:43:00.099Z,929.21
2018-04-28T04:44:32.013Z,929.24
2018-04-28T04:46:03.725Z,929.26
2018-04-28T04:47:35.538Z,929.21
2018-04-28T04:49:07.354Z,929.20
2018-04-28T04:50:39.167Z,929.18
2018-04-28T04:52:10.980Z,929.18
2018-04-28T04:53:42.792Z,929.18
2018-04-28T04:55:14.607Z,929.15
2018-04-28T04:56:46.569Z,929.13
2018-04-28T04:58:18.233Z,929.08
2018-04-28T04:59:50.047Z,929.13
2018-04-28T05:01:21.865Z,929.09
2018-04-28T05:02:53.776Z,929.17
2018-04-28T05:04:25.514Z,929.12
2018-04-28T05:05:57.299Z,929.14
2018-04-28T05:07:29.114Z,929.12
2018-04-28T05:09:00.926Z,929.15
2018-04-28T05:10:32.743Z,929.09
2018-04-28T05:12:04.553Z,929.13
2018-04-28T05:13:36.365Z,929.12
2018-04-28T05:15:08.179Z,929.10
2018-04-28T05:16:39.995Z,929.14
2018-04-28T05:18:11.808Z,929.15
2018-04-28T05:19:43.619Z,929.17
2018-04-28T05:21:15.782Z,929.12
2018-04-28T05:22:47.245Z,929.12
2018-04-28T05:24:19.061Z,929.09
2018-04-28T05:25:50.870Z,929.08
2018-04-28T05:27:22.685Z,929.12
2018-04-28T05:28:54.505Z,929.14
2018-04-28T05:30:26.311Z,929.17
2018-04-28T05:31:58.122Z,929.14
2018-04-28T05:33:30.087Z,929.13
2018-04-28T05:35:01.750Z,929.10
2018-04-28T05:36:33.563Z,929.11
2018-04-28T05:38:05.376Z,929.16
2018-04-28T05:39:37.289Z,929.19
2018-04-28T05:41:09.001Z,929.21
2018-04-28T05:42:40.814Z,929.20
2018-04-28T05:44:12.627Z,929.20
2018-04-28T05:45:44.441Z,929.16
2018-04-28T05:47:16.256Z,929.18
2018-04-28T05:48:48.067Z,929.16
2018-04-28T05:50:19.880Z,929.18
2018-04-28T05:51:51.944Z,929.16
2018-04-28T05:53:23.506Z,929.13
2018-04-28T05:54:55.319Z,929.13
2018-04-28T05:56:27.132Z,929.10
2018-04-28T05:57:59.049Z,929.12
2018-04-28T05:59:30.760Z,929.11
2018-04-28T06:01:02.572Z,929.16
2018-04-28T06:02:34.383Z,929.12
2018-04-28T06:04:06.348Z,929.12
2018-04-28T06:05:38.013Z,929.12
2018-04-28T06:07:09.825Z,929.16
2018-04-28T06:08:41.635Z,929.15
2018-04-28T06:10:13.450Z,929.15
2018-04-28T06:11:45.261Z,929.12
2018-04-28T06:13:17.075Z,929.10
2018-04-28T06:14:48.887Z,929.09
2018-04-28T06:16:20.801Z,929.06
2018-04-28T06:17:52.514Z,929.07
2018-04-28T06:19:24.327Z,929.04
2018-04-28T06:20:56.139Z,929.07
2018-04-28T06:22:28.207Z,929.09
2018-04-28T06:23:59.765Z,929.04
2018-04-28T06:25:31.579Z,929.05
2018-04-28T06:27:03.394Z,929.10
2018-04-28T06:28:35.356Z,929.08
2018-04-28T06:30:07.019Z,929.15
2018-04-28T06:31:38.831Z,929.18
2018-04-28T06:33:10.644Z,929.17
2018-04-28T06:34:43.508Z,929.14
2018-04-28T06:36:14.269Z,929.12
2018-04-28T06:37:46.090Z,929.14
2018-04-28T06:39:17.897Z,929.11
2018-04-28T06:40:49.710Z,929.07
2018-04-28T06:42:21.522Z,929.05
2018-04-28T06:43:53.335Z,929.07
2018-04-28T06:45:25.150Z,929.08
2018-04-28T06:46:56.963Z,929.08
2018-04-28T06:48:28.776Z,929.16
2018-04-28T06:50:00.591Z,929.14
2018-04-28T06:51:32.403Z,929.17
2018-04-28T06:53:04.617Z,929.17
2018-04-28T06:54:36.034Z,929.14
2018-04-28T06:56:07.847Z,929.12
2018-04-28T06:57:39.658Z,929.10
2018-04-28T06:59:11.470Z,929.06
2018-04-28T07:00:43.285Z,929.03
2018-04-28T07:02:15.097Z,929.00
2018-04-28T07:03:46.911Z,928.96
2018-04-28T07:05:18.874Z,928.87
2018-04-28T07:06:50.537Z,928.92
2018-04-28T07:08:22.355Z,928.92
2018-04-28T07:09:54.163Z,928.88
2018-04-28T07:11:26.077Z,928.94
2018-04-28T07:12:57.791Z,928.93
2018-04-28T07:14:29.604Z,928.91
2018-04-28T07:16:01.418Z,928.86
2018-04-28T07:17:33.231Z,928.94
2018-04-28T07:19:05.043Z,928.92
2018-04-28T07:20:36.858Z,928.96
2018-04-28T07:22:08.670Z,928.98
2018-04-28T07:23:40.733Z,928.98
2018-04-28T07:25:12.300Z,928.93
2018-04-28T07:26:44.108Z,928.95
2018-04-28T07:28:15.922Z,928.97
2018-04-28T07:29:47.985Z,928.97
2018-04-28T07:31:19.548Z,929.01
2018-04-28T07:32:51.361Z,928.97
2018-04-28T07:34:23.173Z,928.99
2018-04-28T07:35:54.987Z,928.97
2018-04-28T07:37:26.800Z,928.96
2018-04-28T07:38:58.614Z,929.02
2018-04-28T07:40:30.428Z,929.02
2018-04-28T07:42:02.242Z,929.06
2018-04-28T07:43:34.060Z,929.07
2018-04-28T07:45:05.868Z,929.08
2018-04-28T07:46:37.681Z,929.07
2018-04-28T07:48:09.597Z,929.04
2018-04-28T07:49:41.313Z,929.05
2018-04-28T07:51:13.129Z,929.03
2018-04-28T07:52:44.935Z,929.04
2018-04-28T07:54:16.751Z,929.06
2018-04-28T07:55:48.561Z,929.03
2018-04-28T07:57:20.380Z,929.04
2018-04-28T07:58:52.196Z,929.04
2018-04-28T08:00:24.162Z,929.07
2018-04-28T08:01:55.816Z,929.08
2018-04-28T08:03:27.629Z,929.08
2018-04-28T08:04:59.448Z,929.10
2018-04-28T08:06:31.557Z,929.07
2018-04-28T08:08:03.070Z,929.11
2018-04-28T08:09:34.887Z,929.08
2018-04-28T08:11:06.698Z,929.11
2018-04-28T08:12:38.512Z,929.13
2018-04-28T08:14:10.326Z,929.13
2018-04-28T08:15:42.143Z,929.13
2018-04-28T08:17:13.952Z,929.10
2018-04-28T08:18:45.764Z,929.10
2018-04-28T08:20:17.579Z,929.11
2018-04-28T08:21:49.390Z,929.12
2018-04-28T08:23:21.204Z,929.11
2018-04-28T08:24:53.118Z,929.14
2018-04-28T08:26:24.831Z,929.13
2018-04-28T08:27:56.645Z,929.16
2018-04-28T08:29:28.458Z,929.16
2018-04-28T08:31:00.272Z,929.11
2018-04-28T08:32:32.085Z,929.18
2018-04-28T08:34:03.898Z,929.19
2018-04-28T08:35:35.712Z,929.21
2018-04-28T08:37:07.784Z,929.22
2018-04-28T08:38:39.339Z,929.19
2018-04-28T08:40:11.153Z,929.20
2018-04-28T08:41:42.968Z,929.24
2018-04-28T08:43:15.038Z,929.23
2018-04-28T08:44:46.594Z,929.24
2018-04-28T08:46:18.409Z,929.23
2018-04-28T08:47:50.225Z,929.26
2018-04-28T08:49:22.035Z,929.21
2018-04-28T08:50:53.848Z,929.21
2018-04-28T08:52:25.661Z,929.28
2018-04-28T08:53:57.474Z,929.25
2018-04-28T08:55:29.537Z,929.19
2018-04-28T08:57:01.101Z,929.29
2018-04-28T08:58:32.914Z,929.33
2018-04-28T09:00:04.727Z,929.31
2018-04-28T09:01:36.790Z,929.37
2018-04-28T09:03:08.352Z,929.34
2018-04-28T09:04:40.165Z,929.36
2018-04-28T09:06:11.980Z,929.38
2018-04-28T09:07:43.943Z,929.38
2018-04-28T09:09:15.606Z,929.40
2018-04-28T09:10:47.424Z,929.47
2018-04-28T09:12:19.233Z,929.49
2018-04-28T09:13:51.045Z,929.49
2018-04-28T09:15:22.858Z,929.47
2018-04-28T09:16:54.672Z,929.47
2018-04-28T09:18:26.486Z,929.49
2018-04-28T09:19:58.397Z,929.38
2018-04-28T09:21:30.112Z,929.51
2018-04-28T09:23:01.925Z,929.49
2018-04-28T09:24:33.739Z,929.57
2018-04-28T09:26:05.812Z,929.63
2018-04-28T09:27:37.364Z,929.59
2018-04-28T09:29:09.178Z,929.57
2018-04-28T09:30:40.989Z,929.58
2018-04-28T09:32:12.903Z,929.65
2018-04-28T09:33:44.615Z,929.63
2018-04-28T09:35:16.429Z,929.65
2018-04-28T09:36:48.244Z,929.72
2018-04-28T09:38:20.156Z,929.74
2018-04-28T09:39:51.870Z,929.77
2018-04-28T09:41:23.681Z,929.81
2018-04-28T09:42:55.493Z,929.85
2018-04-28T09:44:27.308Z,929.84
2018-04-28T09:45:59.122Z,929.92
2018-04-28T09:47:30.936Z,929.90
2018-04-28T09:49:02.749Z,929.94
2018-04-28T09:50:34.563Z,929.95
2018-04-28T09:52:06.374Z,930.03
2018-04-28T09:53:38.189Z,930.03
2018-04-28T09:56:42.166Z,930.13
2018-04-28T09:58:13.932Z,930.12
2018-04-28T09:59:45.443Z,930.14
2018-04-28T10:01:17.256Z,930.12
2018-04-28T10:02:49.070Z,930.13
2018-04-28T10:04:20.883Z,930.17
2018-04-28T10:05:52.723Z,930.21
2018-04-28T10:07:24.512Z,930.25
2018-04-28T10:08:56.325Z,930.22
2018-04-28T10:10:28.340Z,930.24
2018-04-28T10:13:32.498Z,930.26
2018-04-28T10:15:04.814Z,930.25
2018-04-28T10:16:35.396Z,930.22
2018-04-28T10:18:07.208Z,930.24
2018-04-28T10:19:39.022Z,930.28
2018-04-28T10:21:10.836Z,930.35
2018-04-28T10:22:42.854Z,930.34
2018-04-28T10:24:14.470Z,930.33
2018-04-28T10:27:18.348Z,930.32
2018-04-28T10:28:50.214Z,930.35
2018-04-28T10:30:21.727Z,930.44
2018-04-28T10:31:53.843Z,930.42
2018-04-28T10:33:25.456Z,930.38
2018-04-28T10:34:57.170Z,930.42
2018-04-28T10:36:28.986Z,930.46
2018-04-28T10:38:00.801Z,930.45
2018-04-28T10:39:32.817Z,930.50
2018-04-28T10:41:04.432Z,930.48
2018-04-28T10:44:08.064Z,930.57
2018-04-28T10:45:39.978Z,930.54
2018-04-28T10:47:11.693Z,930.57
2018-04-28T10:48:43.813Z,930.61
2018-04-28T10:50:15.325Z,930.60
2018-04-28T10:51:47.242Z,930.62
2018-04-28T10:53:18.958Z,930.66
2018-04-28T10:54:50.774Z,930.60
2018-04-28T10:56:22.590Z,930.57
2018-04-28T10:57:54.407Z,930.56
2018-04-28T10:59:26.224Z,930.58
2018-04-28T11:00:58.048Z,930.49
2018-04-28T11:02:29.858Z,930.58
2018-04-28T11:04:01.674Z,930.62
2018-04-28T11:05:34.032Z,930.66
2018-04-28T11:07:05.311Z,930.68
2018-04-28T11:08:37.127Z,930.72
2018-04-28T11:10:09.042Z,930.76
2018-04-28T11:11:40.761Z,930.79
2018-04-28T11:13:12.581Z,930.81
2018-04-28T11:14:44.697Z,930.85
2018-04-28T11:17:48.028Z,930.89
2018-04-28T11:19:19.846Z,930.91
2018-04-28T11:20:51.681Z,930.85
2018-04-28T11:22:23.481Z,930.92
2018-04-28T11:23:55.600Z,930.96
2018-04-28T11:25:27.212Z,931.02
2018-04-28T11:26:58.933Z,931.06
2018-04-28T11:28:30.754Z,931.14
2018-04-28T11:30:02.668Z,931.08
2018-04-28T11:31:34.385Z,931.13
2018-04-28T11:33:06.230Z,931.10
2018-04-28T11:34:38.021Z,931.16
2018-04-28T11:36:09.839Z,931.18
2018-04-28T11:37:41.681Z,931.16
2018-04-28T11:39:13.474Z,931.22
2018-04-28T11:40:45.290Z,931.21
2018-04-28T11:42:17.107Z,931.28
2018-04-28T11:43:48.926Z,931.24
2018-04-28T11:45:20.743Z,931.30
2018-04-28T11:46:52.563Z,931.30
2018-04-28T11:48:24.479Z,931.40
2018-04-28T11:51:28.015Z,931.39
2018-04-28T11:52:59.835Z,931.42
2018-04-28T11:54:31.683Z,931.54
2018-04-28T11:56:03.469Z,931.51
2018-04-28T11:57:35.298Z,931.52
2018-04-28T11:59:07.145Z,931.51
2018-04-28T12:00:38.924Z,931.49
2018-04-28T12:02:10.744Z,931.44
2018-04-28T12:03:42.562Z,931.41
2018-04-28T12:05:14.470Z,931.45
2018-04-28T12:06:46.300Z,931.50
2018-04-28T12:08:18.042Z,931.53
2018-04-28T12:09:49.838Z,931.43
2018-04-28T12:11:21.658Z,931.46
2018-04-28T12:12:53.477Z,931.46
2018-04-28T12:14:25.501Z,931.53
2018-04-28T12:15:57.117Z,931.47
2018-04-28T12:17:28.944Z,931.44
2018-04-28T12:19:00.762Z,931.42
2018-04-28T12:20:32.577Z,931.42
2018-04-28T12:22:04.414Z,931.39
2018-04-28T12:23:36.253Z,931.36
2018-04-28T12:25:08.206Z,931.36
2018-04-28T12:26:39.865Z,931.33
2018-04-28T12:28:11.697Z,931.35
2018-04-28T12:29:43.539Z,931.30
2018-04-28T12:32:47.163Z,931.27
2018-04-28T12:34:18.976Z,931.35
2018-04-28T12:35:50.798Z,931.35
2018-04-28T12:37:22.621Z,931.36
2018-04-28T12:38:54.488Z,931.38
2018-04-28T12:40:26.299Z,931.36
2018-04-28T12:41:58.130Z,931.32
2018-04-28T12:43:29.911Z,931.36
2018-04-28T12:45:01.841Z,931.39
2018-04-28T12:46:33.583Z,931.42
2018-04-28T12:48:05.383Z,931.42
2018-04-28T12:49:37.214Z,931.47
2018-04-28T12:51:09.030Z,931.52
2018-04-28T12:52:40.858Z,931.52
2018-04-28T12:54:12.675Z,931.42
2018-04-28T12:55:44.721Z,931.50
2018-04-28T12:57:16.322Z,931.53
2018-04-28T12:58:48.158Z,931.53
2018-04-28T13:00:20.106Z,931.50
2018-04-28T13:01:51.850Z,931.47
2018-04-28T13:03:23.978Z,931.47
2018-04-28T13:04:55.453Z,931.44
2018-04-28T13:06:27.348Z,931.49
2018-04-28T13:07:59.153Z,931.49
2018-04-28T13:09:30.912Z,931.44
2018-04-28T13:11:02.824Z,931.47
2018-04-28T13:12:34.634Z,931.47
2018-04-28T13:14:06.485Z,931.45
2018-04-28T13:15:38.238Z,931.43
2018-04-28T13:17:10.056Z,931.40
2018-04-28T13:18:41.855Z,931.44
2018-04-28T13:20:13.698Z,931.43
2018-04-28T13:21:45.753Z,931.43
2018-04-28T13:23:17.331Z,931.46
2018-04-28T13:26:20.978Z,931.47
2018-04-28T13:27:52.814Z,931.46
2018-04-28T13:29:24.627Z,931.51
2018-04-28T13:30:56.455Z,931.46
2018-04-28T13:32:28.293Z,931.46
2018-04-28T13:34:00.374Z,931.46
2018-04-28T13:35:32.044Z,931.42
2018-04-28T13:37:03.761Z,931.40
2018-04-28T13:38:35.616Z,931.40
2018-04-28T13:40:08.006Z,931.40
2018-04-28T13:41:39.225Z,931.36
2018-04-28T13:43:11.058Z,931.34
2018-04-28T13:44:42.876Z,931.25
2018-04-28T13:46:14.768Z,931.25
2018-04-28T13:47:46.527Z,931.26
2018-04-28T13:49:18.357Z,931.24
2018-04-28T13:50:50.215Z,931.25
2018-04-28T13:52:22.005Z,931.24
2018-04-28T13:53:53.828Z,931.17
2018-04-28T13:55:25.694Z,931.06
2018-04-28T13:56:57.482Z,931.13
2018-04-28T13:58:29.409Z,931.20
2018-04-28T14:00:01.132Z,931.14
2018-04-28T14:01:32.960Z,931.09
2018-04-28T14:03:04.781Z,931.05
2018-04-28T14:04:36.667Z,930.92
2018-04-28T14:06:08.433Z,930.96
2018-04-28T14:07:40.258Z,931.00
2018-04-28T14:09:12.117Z,931.04
2018-04-28T14:10:43.908Z,931.01
2018-04-28T14:12:15.732Z,930.99
2018-04-28T14:13:47.558Z,931.05
2018-04-28T14:15:19.383Z,930.94
2018-04-28T14:16:51.308Z,930.95
2018-04-28T14:18:23.032Z,930.91
2018-04-28T14:19:54.860Z,930.95
2018-04-28T14:21:26.681Z,930.88
2018-04-28T14:22:58.809Z,930.87
2018-04-28T14:24:30.328Z,930.95
2018-04-28T14:26:02.152Z,930.83
2018-04-28T14:27:33.975Z,930.85
2018-04-28T14:29:05.799Z,930.84
2018-04-28T14:30:37.624Z,930.84
2018-04-28T14:32:09.448Z,930.74
2018-04-28T14:33:41.273Z,930.71
2018-04-28T14:35:13.198Z,930.64
2018-04-28T14:36:44.924Z,930.68
2018-04-28T14:38:16.748Z,930.60
2018-04-28T14:39:48.576Z,930.61
2018-04-28T14:41:20.403Z,930.57
2018-04-28T14:42:52.229Z,930.56
2018-04-28T14:44:24.055Z,930.52
2018-04-28T14:45:55.881Z,930.58
2018-04-28T14:47:27.715Z,930.54
2018-04-28T14:48:59.533Z,930.46
2018-04-28T14:50:31.361Z,930.44
2018-04-28T14:52:03.187Z,930.44
2018-04-28T14:53:35.114Z,930.43
2018-04-28T14:56:38.668Z,930.40
2018-04-28T14:58:10.699Z,930.26
2018-04-28T14:59:42.325Z,930.34
2018-04-28T15:01:14.191Z,930.28
2018-04-28T15:02:45.982Z,930.28
2018-04-28T15:04:17.809Z,930.34
2018-04-28T15:05:49.637Z,930.28
2018-04-28T15:07:21.469Z,930.27
2018-04-28T15:08:53.296Z,930.27
2018-04-28T15:10:25.126Z,930.25
2018-04-28T15:11:57.056Z,930.08
2018-04-28T15:13:28.794Z,930.08
2018-04-28T15:15:00.821Z,930.14
2018-04-28T15:18:04.574Z,930.06
2018-04-28T15:19:36.100Z,930.07
2018-04-28T15:21:07.926Z,930.05
2018-04-28T15:22:39.754Z,930.05
2018-04-28T15:24:11.579Z,929.96
2018-04-28T15:25:43.405Z,929.95
2018-04-28T15:27:15.231Z,929.97
2018-04-28T15:28:47.056Z,930.01
2018-04-28T15:30:18.981Z,929.98
2018-04-28T15:33:22.530Z,929.94
2018-04-28T15:36:26.182Z,929.83
2018-04-28T15:37:58.006Z,929.77
2018-04-28T15:39:29.833Z,929.71
2018-04-28T15:41:01.660Z,929.66
2018-04-28T15:42:33.487Z,929.61
2018-04-28T15:44:05.315Z,929.66
2018-04-28T15:45:37.347Z,929.66
2018-04-28T15:47:08.969Z,929.64
2018-04-28T15:48:40.899Z,929.67
2018-04-28T15:51:44.783Z,929.73
2018-04-28T15:54:48.114Z,929.69
2018-04-28T15:56:19.944Z,929.68
2018-04-28T15:57:51.775Z,929.66
2018-04-28T15:59:23.605Z,929.63
2018-04-28T16:00:55.436Z,929.61
2018-04-28T16:02:27.267Z,929.58
2018-04-28T16:03:59.098Z,929.54
2018-04-28T16:05:30.929Z,929.56
2018-04-28T16:07:02.863Z,929.58
2018-04-28T16:08:34.593Z,929.47
2018-04-28T16:13:10.394Z,929.32
2018-04-28T16:14:42.237Z,929.24
2018-04-28T16:16:13.740Z,929.25
2018-04-28T16:17:45.569Z,929.25
2018-04-28T16:19:17.543Z,929.20
2018-04-28T16:20:49.219Z,929.21
2018-04-28T16:22:21.048Z,929.19
2018-04-28T18:51:37.341Z,928.21
2018-04-28T18:53:09.163Z,928.28
2018-04-28T18:54:40.988Z,928.28
2018-04-28T18:56:12.817Z,928.30
2018-04-28T18:57:44.936Z,928.28
2018-04-28T18:59:16.459Z,928.27
2018-04-28T19:02:20.106Z,928.30
2018-04-28T19:03:51.930Z,928.29
2018-04-28T19:05:23.752Z,928.30
2018-04-28T19:06:55.583Z,928.30
2018-04-28T19:08:27.404Z,928.23
2018-04-28T19:09:59.373Z,928.24
2018-04-28T19:11:31.048Z,928.22
2018-04-28T19:13:02.870Z,928.22
2018-04-28T19:14:34.697Z,928.17
2018-04-28T19:16:06.718Z,928.19
2018-04-28T19:17:38.339Z,928.18
2018-04-28T19:19:10.370Z,928.17
2018-04-28T19:20:42.290Z,928.16
2018-04-28T19:22:14.002Z,928.17
2018-04-28T19:23:45.634Z,928.19
2018-04-28T19:25:17.456Z,928.12
2018-04-28T19:26:49.278Z,928.14
2018-04-28T19:28:21.104Z,928.15
2018-04-28T19:29:52.928Z,928.11
2018-04-28T19:31:24.747Z,928.09
2018-04-28T19:32:56.572Z,928.13
2018-04-28T19:34:28.492Z,928.16
2018-04-28T19:37:32.036Z,928.22
2018-04-28T19:39:03.857Z,928.24
2018-04-28T19:40:35.680Z,928.24
2018-04-28T19:42:07.506Z,928.27
2018-04-28T19:43:39.354Z,928.25
2018-04-28T19:45:11.148Z,928.31
2018-04-28T19:46:42.969Z,928.33
2018-04-28T19:48:14.789Z,928.33
2018-04-28T19:49:46.610Z,928.29
2018-04-28T19:51:18.464Z,928.28
2018-04-28T19:54:22.343Z,928.31
2018-04-28T19:55:53.905Z,928.28
2018-04-28T19:57:25.720Z,928.33
2018-04-28T19:58:57.540Z,928.32
2018-04-28T20:00:29.434Z,928.40
2018-04-28T20:02:01.184Z,928.35
2018-04-28T20:03:33.007Z,928.35
2018-04-28T20:05:04.826Z,928.36
2018-04-28T20:06:36.648Z,928.38
2018-04-28T20:08:08.467Z,928.35
2018-04-28T20:11:12.113Z,928.36
2018-04-28T20:12:44.033Z,928.31
2018-04-28T20:14:15.753Z,928.31
2018-04-28T20:15:47.574Z,928.33
2018-04-28T20:17:19.395Z,928.35
2018-04-28T20:18:51.216Z,928.35
2018-04-28T20:20:23.092Z,928.36
2018-04-28T20:21:54.858Z,928.38
2018-04-28T20:23:26.678Z,928.34
2018-04-28T20:24:58.499Z,928.37
2018-04-28T20:26:30.319Z,928.37
2018-04-28T20:28:02.344Z,928.36
2018-04-28T20:29:33.960Z,928.37
2018-04-28T20:31:05.881Z,928.34
2018-04-28T20:32:37.600Z,928.33
2018-04-28T20:34:09.421Z,928.29
2018-04-28T20:35:41.246Z,928.33
2018-04-28T20:37:13.064Z,928.24
2018-04-28T20:38:44.901Z,928.28
2018-04-28T20:40:16.701Z,928.25
2018-04-28T20:41:48.520Z,928.27
2018-04-28T20:43:20.340Z,928.23
2018-04-28T20:44:52.166Z,928.23
2018-04-28T20:46:23.980Z,928.34
2018-04-28T20:47:55.800Z,928.34
2018-04-28T20:49:27.720Z,928.35
2018-04-28T20:50:59.438Z,928.34
2018-04-28T20:52:31.258Z,928.33
2018-04-28T20:54:03.078Z,928.31
2018-04-28T20:55:34.996Z,928.28
2018-04-28T20:57:06.716Z,928.29
2018-04-28T20:58:38.534Z,928.26
2018-04-28T21:00:10.352Z,928.30
2018-04-28T21:01:42.172Z,928.28
2018-04-28T21:03:13.992Z,928.29
2018-04-28T21:04:45.810Z,928.29
2018-04-28T21:06:17.632Z,928.26
2018-04-28T21:07:49.546Z,928.27
2018-04-28T21:09:21.265Z,928.29
2018-04-28T21:10:53.085Z,928.24
2018-04-28T21:12:24.913Z,928.26
2018-04-28T21:13:56.721Z,928.23
2018-04-28T21:15:28.539Z,928.25
2018-04-28T21:17:00.360Z,928.28
2018-04-28T21:18:32.176Z,928.25
2018-04-28T21:20:03.992Z,928.32
2018-04-28T21:21:35.819Z,928.34
2018-04-28T21:23:07.629Z,928.38
2018-04-28T21:24:39.526Z,928.33
2018-04-28T21:26:11.365Z,928.31
2018-04-28T21:27:43.081Z,928.27
2018-04-28T21:29:14.900Z,928.27
2018-04-28T21:30:46.722Z,928.34
2018-04-28T21:32:18.543Z,928.33
2018-04-28T21:33:50.360Z,928.35
2018-04-28T21:35:22.173Z,928.34
2018-04-28T21:36:53.988Z,928.37
2018-04-28T21:38:25.806Z,928.40
2018-04-28T21:39:57.623Z,928.42
2018-04-28T21:41:29.445Z,928.42
2018-04-28T21:43:01.258Z,928.49
2018-04-28T21:44:33.175Z,928.44
2018-04-28T21:46:04.892Z,928.46
2018-04-28T21:47:36.719Z,928.55
2018-04-28T21:49:08.526Z,928.60
2018-04-28T21:50:40.344Z,928.63
2018-04-28T21:52:12.164Z,928.66
2018-04-28T21:53:43.980Z,928.66
2018-04-28T21:55:15.796Z,928.72
2018-04-28T21:56:47.612Z,928.72
2018-04-28T21:58:19.428Z,928.74
2018-04-28T21:59:51.245Z,928.82
2018-04-28T22:01:23.063Z,928.85
2018-04-28T22:02:54.980Z,928.84
2018-04-28T22:04:26.695Z,928.85